createdAt,value
2019-03-22T00:02:13.916Z,114.77
2019-03-22T00:07:22.028Z,103.92
2019-03-22T00:12:30.522Z,110.97
2019-03-22T00:17:37.853Z,113.40
2019-03-22T00:22:48.064Z,104.92
2019-03-22T00:27:56.260Z,106.67
2019-03-22T00:33:04.449Z,116.15
2019-03-22T00:38:12.293Z,104.60
2019-03-22T00:43:20.394Z,107.58
2019-03-22T00:48:28.508Z,105.90
2019-03-22T00:53:36.262Z,98.15
2019-03-22T00:58:44.476Z,98.03
2019-03-22T01:03:51.409Z,103.75
2019-03-22T01:08:59.327Z,100.90
2019-03-22T01:14:07.698Z,102.10
2019-03-22T01:19:15.113Z,91.82
2019-03-22T01:24:22.607Z,97.37
2019-03-22T01:29:30.005Z,93.67
2019-03-22T01:34:37.347Z,95.90
2019-03-22T01:39:45.486Z,94.07
2019-03-22T01:44:54.267Z,90.67
2019-03-22T01:50:02.217Z,77.40
2019-03-22T01:55:09.725Z,76.37
2019-03-22T02:00:19.001Z,78.37
2019-03-22T02:05:28.605Z,77.45
2019-03-22T02:10:35.999Z,76.33
2019-03-22T02:15:43.578Z,104.90
2019-03-22T02:20:50.720Z,74.58
2019-03-22T02:25:58.871Z,72.30
2019-03-22T02:31:07.350Z,65.78
2019-03-22T02:36:15.803Z,74.10
2019-03-22T02:41:23.318Z,70.08
2019-03-22T02:46:30.424Z,71.28
2019-03-22T02:51:38.621Z,72.03
2019-03-22T02:56:47.274Z,67.22
2019-03-22T03:01:54.768Z,64.80
2019-03-22T03:07:09.114Z,57.70
2019-03-22T03:12:16.032Z,64.55
2019-03-22T03:17:23.896Z,55.03
2019-03-22T03:22:36.738Z,55.45
2019-03-22T03:27:44.091Z,57.53
2019-03-22T03:32:51.379Z,60.48
2019-03-22T03:38:00.002Z,52.60
2019-03-22T03:43:07.963Z,59.45
2019-03-22T03:48:17.154Z,56.58
2019-03-22T03:53:25.788Z,61.80
2019-03-22T03:58:53.353Z,56.15
2019-03-22T04:04:00.916Z,52.27
2019-03-22T04:09:09.066Z,43.87
2019-03-22T04:14:21.333Z,47.33
2019-03-22T04:19:29.439Z,50.70
2019-03-22T04:24:37.786Z,46.02
2019-03-22T04:29:45.847Z,48.68
2019-03-22T04:34:54.190Z,52.25
2019-03-22T04:40:01.830Z,52.17
2019-03-22T04:45:09.422Z,48.35
2019-03-22T04:50:17.249Z,46.53
2019-03-22T04:55:24.613Z,47.00
2019-03-22T05:00:31.660Z,36.40
2019-03-22T05:05:39.363Z,36.93
2019-03-22T05:10:47.010Z,38.40
2019-03-22T05:15:55.365Z,38.73
2019-03-22T05:21:03.457Z,33.42
2019-03-22T05:26:10.642Z,42.55
2019-03-22T05:31:20.054Z,34.63
2019-03-22T05:36:28.255Z,42.30
2019-03-22T05:41:37.400Z,39.50
2019-03-22T05:46:45.038Z,40.73
2019-03-22T05:51:52.001Z,40.30
2019-03-22T05:56:59.949Z,38.55
2019-03-22T06:02:07.978Z,35.58
2019-03-22T06:07:15.503Z,35.58
2019-03-22T06:12:23.905Z,38.35
2019-03-22T06:17:32.306Z,40.12
2019-03-22T06:22:41.087Z,38.88
2019-03-22T06:27:48.455Z,37.15
2019-03-22T06:33:01.348Z,41.73
2019-03-22T06:38:09.141Z,42.13
2019-03-22T06:43:16.613Z,39.40
2019-03-22T06:48:24.629Z,38.70
2019-03-22T06:53:43.770Z,44.65
2019-03-22T06:58:51.133Z,40.92
2019-03-22T07:03:59.739Z,38.88
2019-03-22T07:09:08.970Z,39.18
2019-03-22T07:14:16.566Z,39.70
2019-03-22T07:19:24.050Z,38.40
2019-03-22T07:24:30.249Z,36.23
2019-03-22T07:29:35.553Z,38.23
2019-03-22T07:34:41.548Z,35.13
2019-03-22T07:39:47.720Z,34.78
2019-03-22T07:44:54.309Z,35.45
2019-03-22T07:50:00.482Z,33.25
2019-03-22T07:55:06.671Z,35.30
2019-03-22T08:00:12.619Z,42.30
2019-03-22T08:05:17.977Z,36.13
2019-03-22T08:10:24.809Z,38.17
2019-03-22T08:15:31.400Z,37.53
2019-03-22T08:20:38.927Z,36.83
2019-03-22T08:25:45.360Z,36.25
2019-03-22T08:30:51.827Z,32.45
2019-03-22T08:35:59.918Z,32.45
2019-03-22T08:41:07.600Z,32.80
2019-03-22T08:46:13.961Z,34.98
2019-03-22T08:51:20.243Z,37.70
2019-03-22T08:56:26.747Z,30.40
2019-03-22T09:01:33.318Z,34.27
2019-03-22T09:06:39.934Z,28.92
2019-03-22T09:11:46.132Z,37.88
2019-03-22T09:16:52.468Z,41.75
2019-03-22T09:22:07.216Z,36.08
2019-03-22T09:27:13.836Z,32.08
2019-03-22T09:32:21.075Z,41.92
2019-03-22T09:37:27.586Z,42.78
2019-03-22T09:42:34.378Z,29.72
2019-03-22T09:47:43.462Z,37.20
2019-03-22T09:52:49.644Z,35.37
2019-03-22T09:57:55.375Z,31.95
2019-03-22T10:03:01.817Z,46.40
2019-03-22T10:08:07.729Z,33.58
2019-03-22T10:13:14.110Z,51.77
2019-03-22T10:18:19.471Z,36.08
2019-03-22T10:23:25.490Z,44.60
2019-03-22T10:28:31.059Z,44.30
2019-03-22T10:33:37.265Z,54.20
2019-03-22T10:38:43.544Z,47.23
2019-03-22T10:43:49.957Z,47.43
2019-03-22T10:48:56.132Z,51.45
2019-03-22T10:54:01.894Z,47.88
2019-03-22T10:59:11.221Z,53.38
2019-03-22T11:04:17.278Z,44.90
2019-03-22T11:09:23.277Z,48.90
2019-03-22T11:14:29.241Z,48.80
2019-03-22T11:19:35.277Z,46.83
2019-03-22T11:24:41.579Z,39.50
2019-03-22T11:29:47.775Z,49.85
2019-03-22T11:34:54.137Z,54.90
2019-03-22T11:39:59.729Z,50.75
2019-03-22T11:45:05.649Z,62.00
2019-03-22T11:50:12.037Z,46.30
2019-03-22T11:55:18.428Z,47.00
2019-03-22T12:00:25.218Z,49.38
2019-03-22T12:05:39.982Z,56.95
2019-03-22T12:10:39.624Z,51.18
2019-03-22T12:15:44.805Z,53.95
2019-03-22T12:20:51.543Z,47.48
2019-03-22T12:25:57.950Z,60.95
2019-03-22T12:31:04.118Z,62.35
2019-03-22T12:36:10.083Z,60.73
2019-03-22T12:41:17.090Z,62.73
2019-03-22T12:46:23.070Z,66.40
2019-03-22T12:51:29.186Z,70.05
2019-03-22T12:56:35.423Z,60.92
2019-03-22T13:01:41.781Z,57.23
2019-03-22T13:06:48.366Z,51.92
2019-03-22T13:11:54.782Z,56.02
2019-03-22T13:17:00.939Z,54.98
2019-03-22T13:22:07.101Z,61.25
2019-03-22T13:27:12.564Z,53.55
2019-03-22T13:32:19.287Z,52.45
2019-03-22T13:37:25.637Z,58.13
2019-03-22T13:42:31.199Z,55.00
2019-03-22T13:47:37.798Z,67.55
2019-03-22T13:52:44.178Z,55.12
2019-03-22T13:57:52.007Z,64.00
2019-03-22T14:03:03.257Z,71.40
2019-03-22T14:08:05.966Z,67.37
2019-03-22T14:13:12.337Z,57.60
2019-03-22T14:18:18.748Z,61.70
2019-03-22T14:23:25.112Z,59.65
2019-03-22T14:28:31.493Z,63.25
2019-03-22T14:33:37.868Z,74.15
2019-03-22T14:38:44.322Z,63.73
2019-03-22T14:43:50.854Z,71.47
2019-03-22T14:48:56.396Z,81.08
2019-03-22T14:54:02.386Z,78.65
2019-03-22T14:59:08.162Z,73.65
2019-03-22T15:04:14.316Z,66.53
2019-03-22T15:09:20.908Z,69.42
2019-03-22T15:14:26.545Z,79.77
2019-03-22T15:19:32.851Z,80.85
2019-03-22T15:24:38.189Z,75.08
2019-03-22T15:29:43.817Z,76.40
2019-03-22T15:34:52.176Z,73.65
2019-03-22T15:39:59.211Z,78.40
2019-03-22T15:45:06.004Z,69.67
2019-03-22T15:50:12.376Z,72.75
2019-03-22T15:55:18.747Z,75.03
2019-03-22T16:00:23.933Z,81.00
2019-03-22T16:05:30.282Z,78.57
2019-03-22T16:10:36.877Z,68.37
2019-03-22T16:15:42.825Z,59.73
2019-03-22T16:20:49.013Z,77.08
2019-03-22T16:25:55.786Z,58.35
2019-03-22T16:31:02.187Z,63.50
2019-03-22T16:36:07.660Z,64.32
2019-03-22T16:41:13.911Z,62.50
2019-03-22T16:46:20.104Z,67.62
2019-03-22T16:51:25.596Z,67.85
2019-03-22T16:56:32.043Z,66.95
2019-03-22T17:01:38.215Z,75.87
2019-03-22T17:06:44.395Z,66.02
2019-03-22T17:11:50.986Z,64.47
2019-03-22T17:16:57.150Z,66.82
2019-03-22T17:22:02.512Z,75.55
2019-03-22T17:27:08.688Z,70.65
2019-03-22T17:32:14.660Z,74.97
2019-03-22T17:37:21.041Z,60.17
2019-03-22T17:42:27.429Z,68.78
2019-03-22T17:47:34.606Z,64.07
2019-03-22T17:52:42.844Z,66.57
2019-03-22T17:57:49.447Z,70.22
2019-03-22T18:02:59.300Z,74.97
2019-03-22T18:08:04.980Z,66.87
2019-03-22T18:13:10.815Z,62.38
2019-03-22T18:18:17.252Z,70.05
2019-03-22T18:23:23.182Z,63.90
2019-03-22T18:28:29.364Z,66.53
2019-03-22T18:33:36.428Z,73.57
2019-03-22T18:38:42.937Z,65.30
2019-03-22T18:43:49.759Z,73.87
2019-03-22T18:48:55.888Z,63.98
2019-03-22T18:54:02.282Z,65.62
2019-03-22T18:59:08.458Z,77.35
2019-03-22T19:04:14.655Z,67.70
2019-03-22T19:09:21.214Z,71.00
2019-03-22T19:14:27.605Z,72.92
2019-03-22T19:19:33.808Z,67.72
2019-03-22T19:24:40.576Z,66.82
2019-03-22T19:29:45.906Z,67.95
2019-03-22T19:34:54.673Z,73.65
2019-03-22T19:40:00.330Z,68.72
2019-03-22T19:45:06.509Z,67.78
2019-03-22T19:50:13.075Z,66.75
2019-03-22T19:55:19.879Z,65.85
2019-03-22T20:00:25.890Z,67.70
2019-03-22T20:05:31.160Z,64.55
2019-03-22T20:10:36.525Z,65.42
2019-03-22T20:15:43.359Z,64.30
2019-03-22T20:20:49.276Z,62.93
2019-03-22T20:25:56.741Z,73.72
2019-03-22T20:31:02.907Z,64.82
2019-03-22T20:36:09.341Z,71.60
2019-03-22T20:41:14.588Z,64.45
2019-03-22T20:46:20.822Z,65.97
2019-03-22T20:51:27.484Z,63.48
2019-03-22T20:56:34.402Z,73.57
2019-03-22T21:01:39.952Z,65.40
2019-03-22T21:06:46.355Z,72.62
2019-03-22T21:11:52.552Z,74.47
2019-03-22T21:16:58.487Z,67.50
2019-03-22T21:22:04.472Z,69.87
2019-03-22T21:27:15.490Z,76.80
2019-03-22T21:32:18.236Z,82.22
2019-03-22T21:37:24.425Z,77.85
2019-03-22T21:42:29.995Z,80.45
2019-03-22T21:47:36.155Z,106.67
2019-03-22T21:52:42.126Z,112.57
2019-03-22T21:57:48.523Z,123.47
2019-03-22T22:02:54.895Z,199.68
2019-03-22T22:08:00.851Z,128.05
2019-03-22T22:13:07.439Z,88.17
2019-03-22T22:18:14.047Z,74.00
2019-03-22T22:23:20.499Z,70.40
2019-03-22T22:28:27.068Z,93.03
2019-03-22T22:33:33.779Z,99.97
2019-03-22T22:38:39.069Z,100.87
2019-03-22T22:43:45.943Z,93.35
2019-03-22T22:48:52.320Z,96.30
2019-03-22T22:53:58.281Z,97.45
2019-03-22T22:59:05.485Z,102.25
2019-03-22T23:04:11.672Z,104.83
2019-03-22T23:09:18.060Z,126.90
2019-03-22T23:14:23.517Z,113.47
2019-03-22T23:19:30.186Z,158.00
2019-03-22T23:24:37.396Z,151.65
2019-03-22T23:29:44.598Z,144.53
2019-03-22T23:34:58.621Z,167.93
2019-03-22T23:39:57.757Z,140.60
2019-03-22T23:45:03.316Z,141.62
2019-03-22T23:50:08.763Z,136.07
2019-03-22T23:55:15.247Z,109.00
